Terminal Aerodrome Forecast
Issued by NWS

Home | Current Version | Previous Version | Text Only | Print | Product List | Glossary On
Versions: 1 2 3 4 5 6 7 8 9 10 11 12 13 14 15
000
FTUS43 KSGF 202300
TAFJLN
TAF
KJLN 202320Z 2100/2124 19015KT P6SM SKC
     FM210100 17010KT P6SM SKC
     FM210600 19010KT P6SM SKC WS020/21040KT
     FM211500 21015G22KT P6SM SKC=

USA.gov is the U.S. government's official web portal to all federal, state and local government web resources and services.